sensor_id;sensor_type;location;lat;lon;timestamp;temperature;humidity
11532;DHT22;5822;51.000;5.874;2023-04-01T00:00:53;12.00;99.90
11532;DHT22;5822;51.000;5.874;2023-04-01T00:03:20;12.00;99.90
11532;DHT22;5822;51.000;5.874;2023-04-01T00:05:46;12.00;99.90
11532;DHT22;5822;51.000;5.874;2023-04-01T00:08:12;12.00;99.90
11532;DHT22;5822;51.000;5.874;2023-04-01T00:10:38;11.90;99.90
11532;DHT22;5822;51.000;5.874;2023-04-01T00:13:04;11.90;99.90
11532;DHT22;5822;51.000;5.874;2023-04-01T00:15:29;11.90;99.90
11532;DHT22;5822;51.000;5.874;2023-04-01T00:17:55;11.90;99.90
11532;DHT22;5822;51.000;5.874;2023-04-01T00:20:21;11.80;99.90
11532;DHT22;5822;51.000;5.874;2023-04-01T00:22:47;11.90;99.90
11532;DHT22;5822;51.000;5.874;2023-04-01T00:25:14;11.90;99.90
11532;DHT22;5822;51.000;5.874;2023-04-01T00:27:40;11.90;99.90
11532;DHT22;5822;51.000;5.874;2023-04-01T00:30:07;11.90;99.90
11532;DHT22;5822;51.000;5.874;2023-04-01T00:32:33;12.00;99.90
11532;DHT22;5822;51.000;5.874;2023-04-01T00:34:59;12.00;99.90
11532;DHT22;5822;51.000;5.874;2023-04-01T00:37:26;11.90;99.90
11532;DHT22;5822;51.000;5.874;2023-04-01T00:39:51;11.90;99.90
11532;DHT22;5822;51.000;5.874;2023-04-01T00:42:17;11.90;99.90
11532;DHT22;5822;51.000;5.874;2023-04-01T00:44:47;12.00;99.90
11532;DHT22;5822;51.000;5.874;2023-04-01T00:47:13;11.90;99.90
11532;DHT22;5822;51.000;5.874;2023-04-01T00:49:43;11.90;99.90
11532;DHT22;5822;51.000;5.874;2023-04-01T00:52:12;11.90;99.90
11532;DHT22;5822;51.000;5.874;2023-04-01T00:54:38;11.90;99.90
11532;DHT22;5822;51.000;5.874;2023-04-01T00:57:15;11.80;99.90
11532;DHT22;5822;51.000;5.874;2023-04-01T00:59:46;11.80;99.90
11532;DHT22;5822;51.000;5.874;2023-04-01T01:02:14;11.80;99.90
11532;DHT22;5822;51.000;5.874;2023-04-01T01:04:40;11.80;99.90
11532;DHT22;5822;51.000;5.874;2023-04-01T01:09:43;11.80;99.90
11532;DHT22;5822;51.000;5.874;2023-04-01T01:12:28;11.80;99.90
11532;DHT22;5822;51.000;5.874;2023-04-01T01:26:33;11.70;99.90
11532;DHT22;5822;51.000;5.874;2023-04-01T01:28:56;11.80;99.90
11532;DHT22;5822;51.000;5.874;2023-04-01T01:34:14;11.80;99.90
11532;DHT22;5822;51.000;5.874;2023-04-01T01:36:42;11.80;99.90
11532;DHT22;5822;51.000;5.874;2023-04-01T01:39:11;11.80;99.90
11532;DHT22;5822;51.000;5.874;2023-04-01T01:41:40;11.80;99.90
11532;DHT22;5822;51.000;5.874;2023-04-01T01:44:12;11.80;99.90
11532;DHT22;5822;51.000;5.874;2023-04-01T01:46:39;11.80;99.90
11532;DHT22;5822;51.000;5.874;2023-04-01T01:49:07;11.80;99.90
11532;DHT22;5822;51.000;5.874;2023-04-01T01:51:35;11.80;99.90
11532;DHT22;5822;51.000;5.874;2023-04-01T01:54:01;11.90;99.90
11532;DHT22;5822;51.000;5.874;2023-04-01T01:56:29;11.80;99.90
11532;DHT22;5822;51.000;5.874;2023-04-01T01:59:00;11.80;99.90
11532;DHT22;5822;51.000;5.874;2023-04-01T02:01:30;11.80;99.90
11532;DHT22;5822;51.000;5.874;2023-04-01T02:03:58;11.80;99.90
11532;DHT22;5822;51.000;5.874;2023-04-01T02:06:26;11.80;99.90
11532;DHT22;5822;51.000;5.874;2023-04-01T02:09:01;11.80;99.90
11532;DHT22;5822;51.000;5.874;2023-04-01T02:11:41;11.80;99.90
11532;DHT22;5822;51.000;5.874;2023-04-01T02:14:19;11.80;99.90
11532;DHT22;5822;51.000;5.874;2023-04-01T02:17:13;11.80;99.90
11532;DHT22;5822;51.000;5.874;2023-04-01T02:19:53;11.80;99.90
11532;DHT22;5822;51.000;5.874;2023-04-01T02:22:31;11.80;99.90
11532;DHT22;5822;51.000;5.874;2023-04-01T02:25:03;11.80;99.90
11532;DHT22;5822;51.000;5.874;2023-04-01T02:27:30;11.80;99.90
11532;DHT22;5822;51.000;5.874;2023-04-01T02:29:56;11.80;99.90
11532;DHT22;5822;51.000;5.874;2023-04-01T02:32:22;11.80;99.90
11532;DHT22;5822;51.000;5.874;2023-04-01T02:34:48;11.70;99.90
11532;DHT22;5822;51.000;5.874;2023-04-01T02:37:14;11.70;99.90
11532;DHT22;5822;51.000;5.874;2023-04-01T02:39:40;11.70;99.90
11532;DHT22;5822;51.000;5.874;2023-04-01T02:42:08;11.70;99.90
11532;DHT22;5822;51.000;5.874;2023-04-01T02:44:34;11.80;99.90
11532;DHT22;5822;51.000;5.874;2023-04-01T02:47:00;11.70;99.90
11532;DHT22;5822;51.000;5.874;2023-04-01T02:49:25;11.80;99.90
11532;DHT22;5822;51.000;5.874;2023-04-01T02:51:51;11.80;99.90
11532;DHT22;5822;51.000;5.874;2023-04-01T02:54:17;11.80;99.90
11532;DHT22;5822;51.000;5.874;2023-04-01T02:56:43;11.80;99.90
11532;DHT22;5822;51.000;5.874;2023-04-01T02:59:09;11.90;99.90
11532;DHT22;5822;51.000;5.874;2023-04-01T03:01:34;11.80;99.90
11532;DHT22;5822;51.000;5.874;2023-04-01T03:04:00;11.80;99.90
11532;DHT22;5822;51.000;5.874;2023-04-01T03:06:26;11.80;99.90
11532;DHT22;5822;51.000;5.874;2023-04-01T03:08:52;11.70;99.90
11532;DHT22;5822;51.000;5.874;2023-04-01T03:11:17;11.80;99.90
11532;DHT22;5822;51.000;5.874;2023-04-01T03:13:43;11.80;99.90
11532;DHT22;5822;51.000;5.874;2023-04-01T03:16:08;11.80;99.90
11532;DHT22;5822;51.000;5.874;2023-04-01T03:18:34;11.90;99.90
11532;DHT22;5822;51.000;5.874;2023-04-01T03:21:18;11.80;99.90
11532;DHT22;5822;51.000;5.874;2023-04-01T03:23:44;11.80;99.90
11532;DHT22;5822;51.000;5.874;2023-04-01T03:26:10;11.90;99.90
11532;DHT22;5822;51.000;5.874;2023-04-01T03:28:36;11.80;99.90
11532;DHT22;5822;51.000;5.874;2023-04-01T03:31:02;11.80;99.90
11532;DHT22;5822;51.000;5.874;2023-04-01T03:33:27;11.80;99.90
11532;DHT22;5822;51.000;5.874;2023-04-01T03:35:53;11.80;99.90
11532;DHT22;5822;51.000;5.874;2023-04-01T03:38:18;11.80;99.90
11532;DHT22;5822;51.000;5.874;2023-04-01T03:40:44;11.70;99.90
11532;DHT22;5822;51.000;5.874;2023-04-01T03:43:10;11.70;99.90
11532;DHT22;5822;51.000;5.874;2023-04-01T03:45:46;11.70;99.90
11532;DHT22;5822;51.000;5.874;2023-04-01T03:48:13;11.70;99.90
11532;DHT22;5822;51.000;5.874;2023-04-01T03:50:39;11.70;99.90
11532;DHT22;5822;51.000;5.874;2023-04-01T03:53:04;11.80;99.90
11532;DHT22;5822;51.000;5.874;2023-04-01T03:55:30;11.80;99.90
11532;DHT22;5822;51.000;5.874;2023-04-01T03:57:56;11.60;99.90
11532;DHT22;5822;51.000;5.874;2023-04-01T04:00:22;11.50;99.90
11532;DHT22;5822;51.000;5.874;2023-04-01T04:02:47;11.50;99.90
11532;DHT22;5822;51.000;5.874;2023-04-01T04:05:13;11.50;99.90
11532;DHT22;5822;51.000;5.874;2023-04-01T04:07:39;11.50;99.90
11532;DHT22;5822;51.000;5.874;2023-04-01T04:10:06;11.50;99.90
11532;DHT22;5822;51.000;5.874;2023-04-01T04:12:32;11.50;99.90
11532;DHT22;5822;51.000;5.874;2023-04-01T04:14:57;11.60;99.90
11532;DHT22;5822;51.000;5.874;2023-04-01T04:17:23;11.50;99.90
11532;DHT22;5822;51.000;5.874;2023-04-01T04:19:48;11.60;99.90
11532;DHT22;5822;51.000;5.874;2023-04-01T04:22:14;11.50;99.90
11532;DHT22;5822;51.000;5.874;2023-04-01T04:24:40;11.50;99.90
11532;DHT22;5822;51.000;5.874;2023-04-01T04:27:05;11.60;99.90
11532;DHT22;5822;51.000;5.874;2023-04-01T04:29:31;11.60;99.90
11532;DHT22;5822;51.000;5.874;2023-04-01T04:31:57;11.50;99.90
11532;DHT22;5822;51.000;5.874;2023-04-01T04:34:22;11.50;99.90
11532;DHT22;5822;51.000;5.874;2023-04-01T04:36:48;11.50;99.90
11532;DHT22;5822;51.000;5.874;2023-04-01T04:39:14;11.50;99.90
11532;DHT22;5822;51.000;5.874;2023-04-01T04:41:41;11.50;99.90
11532;DHT22;5822;51.000;5.874;2023-04-01T04:44:07;11.50;99.90
11532;DHT22;5822;51.000;5.874;2023-04-01T04:46:32;11.50;99.90
11532;DHT22;5822;51.000;5.874;2023-04-01T04:48:58;11.60;99.90
11532;DHT22;5822;51.000;5.874;2023-04-01T04:51:24;11.60;99.90
11532;DHT22;5822;51.000;5.874;2023-04-01T04:53:50;11.60;99.90
11532;DHT22;5822;51.000;5.874;2023-04-01T04:56:20;11.50;99.90
11532;DHT22;5822;51.000;5.874;2023-04-01T04:58:47;11.50;99.90
11532;DHT22;5822;51.000;5.874;2023-04-01T05:01:15;11.60;99.90
11532;DHT22;5822;51.000;5.874;2023-04-01T05:03:41;11.60;99.90
11532;DHT22;5822;51.000;5.874;2023-04-01T05:06:08;11.50;99.90
11532;DHT22;5822;51.000;5.874;2023-04-01T05:08:35;11.50;99.90
11532;DHT22;5822;51.000;5.874;2023-04-01T05:11:01;11.50;99.90
11532;DHT22;5822;51.000;5.874;2023-04-01T05:13:28;11.50;99.90
11532;DHT22;5822;51.000;5.874;2023-04-01T05:15:54;11.50;99.90
11532;DHT22;5822;51.000;5.874;2023-04-01T05:18:20;11.50;99.90
11532;DHT22;5822;51.000;5.874;2023-04-01T05:20:50;11.50;99.90
11532;DHT22;5822;51.000;5.874;2023-04-01T05:23:16;11.50;99.90
11532;DHT22;5822;51.000;5.874;2023-04-01T05:25:43;11.40;99.90
11532;DHT22;5822;51.000;5.874;2023-04-01T05:28:10;11.40;99.90
11532;DHT22;5822;51.000;5.874;2023-04-01T05:30:35;11.40;99.90
11532;DHT22;5822;51.000;5.874;2023-04-01T05:33:01;11.40;99.90
11532;DHT22;5822;51.000;5.874;2023-04-01T05:35:27;11.50;99.90
11532;DHT22;5822;51.000;5.874;2023-04-01T05:37:53;11.50;99.90
11532;DHT22;5822;51.000;5.874;2023-04-01T05:40:19;11.50;99.90
11532;DHT22;5822;51.000;5.874;2023-04-01T05:42:44;11.50;99.90
11532;DHT22;5822;51.000;5.874;2023-04-01T05:45:10;11.60;99.90
11532;DHT22;5822;51.000;5.874;2023-04-01T05:47:36;11.50;99.90
11532;DHT22;5822;51.000;5.874;2023-04-01T05:50:01;11.50;99.90
11532;DHT22;5822;51.000;5.874;2023-04-01T05:52:27;11.50;99.90
11532;DHT22;5822;51.000;5.874;2023-04-01T05:54:53;11.60;99.90
11532;DHT22;5822;51.000;5.874;2023-04-01T05:57:18;11.60;99.90
11532;DHT22;5822;51.000;5.874;2023-04-01T05:59:44;11.50;99.90
11532;DHT22;5822;51.000;5.874;2023-04-01T06:02:11;11.50;99.90
11532;DHT22;5822;51.000;5.874;2023-04-01T06:04:40;11.50;99.90
11532;DHT22;5822;51.000;5.874;2023-04-01T06:07:14;11.50;99.90
11532;DHT22;5822;51.000;5.874;2023-04-01T06:09:41;11.50;99.90
11532;DHT22;5822;51.000;5.874;2023-04-01T06:14:57;11.60;99.90
11532;DHT22;5822;51.000;5.874;2023-04-01T06:17:52;11.50;99.90
11532;DHT22;5822;51.000;5.874;2023-04-01T06:20:35;11.60;99.90
11532;DHT22;5822;51.000;5.874;2023-04-01T06:23:36;11.50;99.90
11532;DHT22;5822;51.000;5.874;2023-04-01T06:29:15;11.50;99.90
11532;DHT22;5822;51.000;5.874;2023-04-01T06:31:46;11.50;99.90
11532;DHT22;5822;51.000;5.874;2023-04-01T06:45:48;11.40;99.90
11532;DHT22;5822;51.000;5.874;2023-04-01T06:51:31;11.50;99.90
11532;DHT22;5822;51.000;5.874;2023-04-01T06:54:12;11.50;99.90
11532;DHT22;5822;51.000;5.874;2023-04-01T06:56:42;11.60;99.90
11532;DHT22;5822;51.000;5.874;2023-04-01T06:59:24;11.60;99.90
11532;DHT22;5822;51.000;5.874;2023-04-01T07:02:01;11.60;99.90
11532;DHT22;5822;51.000;5.874;2023-04-01T07:04:33;11.60;99.90
11532;DHT22;5822;51.000;5.874;2023-04-01T07:09:59;11.60;99.90
11532;DHT22;5822;51.000;5.874;2023-04-01T07:15:03;11.60;99.90
11532;DHT22;5822;51.000;5.874;2023-04-01T07:17:33;11.50;99.90
11532;DHT22;5822;51.000;5.874;2023-04-01T07:20:10;11.60;99.90
11532;DHT22;5822;51.000;5.874;2023-04-01T07:22:53;11.60;99.90
11532;DHT22;5822;51.000;5.874;2023-04-01T07:25:24;11.60;99.90
11532;DHT22;5822;51.000;5.874;2023-04-01T07:27:59;11.60;99.90
11532;DHT22;5822;51.000;5.874;2023-04-01T07:30:28;11.60;99.90
11532;DHT22;5822;51.000;5.874;2023-04-01T07:33:34;11.70;99.90
11532;DHT22;5822;51.000;5.874;2023-04-01T07:36:30;11.60;99.90
11532;DHT22;5822;51.000;5.874;2023-04-01T07:39:12;11.70;99.90
11532;DHT22;5822;51.000;5.874;2023-04-01T07:50:02;11.70;99.90
11532;DHT22;5822;51.000;5.874;2023-04-01T07:58:29;11.70;99.90
11532;DHT22;5822;51.000;5.874;2023-04-01T08:04:22;11.80;99.90
11532;DHT22;5822;51.000;5.874;2023-04-01T08:07:00;11.70;99.90
11532;DHT22;5822;51.000;5.874;2023-04-01T08:17:24;11.70;99.90
11532;DHT22;5822;51.000;5.874;2023-04-01T08:20:23;11.70;99.90
11532;DHT22;5822;51.000;5.874;2023-04-01T08:25:29;11.80;99.90
11532;DHT22;5822;51.000;5.874;2023-04-01T08:30:50;11.90;99.90
11532;DHT22;5822;51.000;5.874;2023-04-01T08:33:28;11.80;99.90
11532;DHT22;5822;51.000;5.874;2023-04-01T08:38:49;11.90;99.90
11532;DHT22;5822;51.000;5.874;2023-04-01T08:52:33;12.00;99.90
11532;DHT22;5822;51.000;5.874;2023-04-01T09:06:33;11.90;99.90
11532;DHT22;5822;51.000;5.874;2023-04-01T09:09:18;12.00;99.90
11532;DHT22;5822;51.000;5.874;2023-04-01T09:37:39;12.00;99.90
11532;DHT22;5822;51.000;5.874;2023-04-01T09:40:53;12.00;99.90
11532;DHT22;5822;51.000;5.874;2023-04-01T09:43:28;12.00;99.90
11532;DHT22;5822;51.000;5.874;2023-04-01T09:57:29;12.00;99.90
11532;DHT22;5822;51.000;5.874;2023-04-01T10:33:55;12.20;99.90
11532;DHT22;5822;51.000;5.874;2023-04-01T10:50:51;12.20;99.90
11532;DHT22;5822;51.000;5.874;2023-04-01T10:56:29;12.30;99.90
11532;DHT22;5822;51.000;5.874;2023-04-01T11:05:45;12.30;99.90
11532;DHT22;5822;51.000;5.874;2023-04-01T11:36:17;12.60;99.90
11532;DHT22;5822;51.000;5.874;2023-04-01T11:44:19;12.60;99.90
11532;DHT22;5822;51.000;5.874;2023-04-01T11:46:52;12.60;99.90
11532;DHT22;5822;51.000;5.874;2023-04-01T11:52:42;12.60;99.90
11532;DHT22;5822;51.000;5.874;2023-04-01T12:01:04;12.50;99.90
11532;DHT22;5822;51.000;5.874;2023-04-01T12:06:14;12.50;99.90
11532;DHT22;5822;51.000;5.874;2023-04-01T12:08:57;12.50;99.90
11532;DHT22;5822;51.000;5.874;2023-04-01T12:14:34;12.50;99.90
11532;DHT22;5822;51.000;5.874;2023-04-01T12:17:23;12.50;99.90
11532;DHT22;5822;51.000;5.874;2023-04-01T12:19:52;12.50;99.90
11532;DHT22;5822;51.000;5.874;2023-04-01T12:25:43;12.60;99.90
11532;DHT22;5822;51.000;5.874;2023-04-01T12:31:12;12.60;99.90
11532;DHT22;5822;51.000;5.874;2023-04-01T12:33:57;12.60;99.90
11532;DHT22;5822;51.000;5.874;2023-04-01T12:37:03;12.70;99.90
11532;DHT22;5822;51.000;5.874;2023-04-01T12:42:45;12.60;99.90
11532;DHT22;5822;51.000;5.874;2023-04-01T12:45:28;12.70;99.90
11532;DHT22;5822;51.000;5.874;2023-04-01T12:48:23;12.70;99.90
11532;DHT22;5822;51.000;5.874;2023-04-01T12:56:03;12.70;99.90
11532;DHT22;5822;51.000;5.874;2023-04-01T13:01:40;12.60;99.90
11532;DHT22;5822;51.000;5.874;2023-04-01T13:17:53;12.60;99.90
11532;DHT22;5822;51.000;5.874;2023-04-01T13:23:23;12.60;99.90
11532;DHT22;5822;51.000;5.874;2023-04-01T13:28:39;12.50;99.90
11532;DHT22;5822;51.000;5.874;2023-04-01T13:31:20;12.60;99.90
11532;DHT22;5822;51.000;5.874;2023-04-01T13:39:25;12.60;99.90
11532;DHT22;5822;51.000;5.874;2023-04-01T13:45:19;12.60;99.90
11532;DHT22;5822;51.000;5.874;2023-04-01T14:01:50;12.60;99.90
11532;DHT22;5822;51.000;5.874;2023-04-01T14:07:32;12.70;99.90
11532;DHT22;5822;51.000;5.874;2023-04-01T14:10:07;12.70;99.90
11532;DHT22;5822;51.000;5.874;2023-04-01T14:12:49;12.70;99.90
11532;DHT22;5822;51.000;5.874;2023-04-01T14:15:42;12.60;99.90
11532;DHT22;5822;51.000;5.874;2023-04-01T14:26:49;12.50;99.90
11532;DHT22;5822;51.000;5.874;2023-04-01T14:48:37;12.70;99.90
11532;DHT22;5822;51.000;5.874;2023-04-01T14:51:20;12.70;99.90
11532;DHT22;5822;51.000;5.874;2023-04-01T14:54:02;12.70;99.90
11532;DHT22;5822;51.000;5.874;2023-04-01T14:57:01;12.60;99.90
11532;DHT22;5822;51.000;5.874;2023-04-01T14:59:28;12.50;99.90
11532;DHT22;5822;51.000;5.874;2023-04-01T15:02:08;12.50;99.90
11532;DHT22;5822;51.000;5.874;2023-04-01T15:04:56;12.60;99.90
11532;DHT22;5822;51.000;5.874;2023-04-01T15:15:22;12.40;99.90
11532;DHT22;5822;51.000;5.874;2023-04-01T15:21:48;12.40;99.90
11532;DHT22;5822;51.000;5.874;2023-04-01T15:32:17;12.30;99.90
11532;DHT22;5822;51.000;5.874;2023-04-01T15:35:21;12.40;99.90
11532;DHT22;5822;51.000;5.874;2023-04-01T15:41:24;12.30;99.90
11532;DHT22;5822;51.000;5.874;2023-04-01T15:43:36;12.30;99.90
11532;DHT22;5822;51.000;5.874;2023-04-01T15:46:41;12.30;99.90
11532;DHT22;5822;51.000;5.874;2023-04-01T15:49:35;12.30;99.90
11532;DHT22;5822;51.000;5.874;2023-04-01T15:52:09;12.30;99.90
11532;DHT22;5822;51.000;5.874;2023-04-01T16:00:31;12.30;99.90
11532;DHT22;5822;51.000;5.874;2023-04-01T16:11:50;12.30;99.90
11532;DHT22;5822;51.000;5.874;2023-04-01T16:14:36;12.30;99.90
11532;DHT22;5822;51.000;5.874;2023-04-01T16:19:58;12.20;99.90
11532;DHT22;5822;51.000;5.874;2023-04-01T16:22:38;12.20;99.90
11532;DHT22;5822;51.000;5.874;2023-04-01T16:28:27;12.20;99.90
11532;DHT22;5822;51.000;5.874;2023-04-01T16:34:04;12.20;99.90
11532;DHT22;5822;51.000;5.874;2023-04-01T16:39:38;12.20;99.90
11532;DHT22;5822;51.000;5.874;2023-04-01T16:45:17;12.20;99.90
11532;DHT22;5822;51.000;5.874;2023-04-01T16:48:01;12.20;99.90
11532;DHT22;5822;51.000;5.874;2023-04-01T16:50:44;12.20;99.90
11532;DHT22;5822;51.000;5.874;2023-04-01T16:55:52;12.20;99.90
11532;DHT22;5822;51.000;5.874;2023-04-01T16:58:26;12.20;99.90
11532;DHT22;5822;51.000;5.874;2023-04-01T17:01:04;12.10;99.90
11532;DHT22;5822;51.000;5.874;2023-04-01T17:03:46;12.00;99.90
11532;DHT22;5822;51.000;5.874;2023-04-01T17:06:53;12.00;99.90
11532;DHT22;5822;51.000;5.874;2023-04-01T17:09:45;12.00;99.90
11532;DHT22;5822;51.000;5.874;2023-04-01T17:12:35;12.10;99.90
11532;DHT22;5822;51.000;5.874;2023-04-01T17:21:10;12.10;99.90
11532;DHT22;5822;51.000;5.874;2023-04-01T17:50:30;11.90;99.90
11532;DHT22;5822;51.000;5.874;2023-04-01T18:26:46;11.80;99.90
11532;DHT22;5822;51.000;5.874;2023-04-01T18:29:32;11.70;99.90
11532;DHT22;5822;51.000;5.874;2023-04-01T18:40:13;11.70;99.90
11532;DHT22;5822;51.000;5.874;2023-04-01T18:45:57;11.70;99.90
11532;DHT22;5822;51.000;5.874;2023-04-01T18:56:30;11.70;99.90
11532;DHT22;5822;51.000;5.874;2023-04-01T19:05:31;11.80;99.90
11532;DHT22;5822;51.000;5.874;2023-04-01T19:16:25;11.70;99.90
11532;DHT22;5822;51.000;5.874;2023-04-01T19:21:53;11.60;99.90
11532;DHT22;5822;51.000;5.874;2023-04-01T19:35:36;11.60;99.90
11532;DHT22;5822;51.000;5.874;2023-04-01T19:41:02;11.70;99.90
11532;DHT22;5822;51.000;5.874;2023-04-01T19:43:33;11.80;99.90
11532;DHT22;5822;51.000;5.874;2023-04-01T19:51:43;11.80;99.90
11532;DHT22;5822;51.000;5.874;2023-04-01T20:05:15;11.80;99.90
11532;DHT22;5822;51.000;5.874;2023-04-01T20:07:51;11.70;99.90
11532;DHT22;5822;51.000;5.874;2023-04-01T20:15:55;11.80;99.90
11532;DHT22;5822;51.000;5.874;2023-04-01T20:21:41;11.80;99.90
11532;DHT22;5822;51.000;5.874;2023-04-01T20:26:42;11.70;99.90
11532;DHT22;5822;51.000;5.874;2023-04-01T20:29:15;11.80;99.90
11532;DHT22;5822;51.000;5.874;2023-04-01T20:37:29;11.80;99.90
11532;DHT22;5822;51.000;5.874;2023-04-01T20:48:40;11.80;99.90
11532;DHT22;5822;51.000;5.874;2023-04-01T20:51:30;11.90;99.90
11532;DHT22;5822;51.000;5.874;2023-04-01T20:54:22;12.00;99.90
11532;DHT22;5822;51.000;5.874;2023-04-01T21:00:02;11.90;99.90
11532;DHT22;5822;51.000;5.874;2023-04-01T21:14:01;11.80;99.90
11532;DHT22;5822;51.000;5.874;2023-04-01T21:20:22;11.80;99.90
11532;DHT22;5822;51.000;5.874;2023-04-01T21:25:56;11.80;99.90
11532;DHT22;5822;51.000;5.874;2023-04-01T21:31:23;11.70;99.90
11532;DHT22;5822;51.000;5.874;2023-04-01T21:34:04;11.70;99.90
11532;DHT22;5822;51.000;5.874;2023-04-01T21:45:23;11.70;99.90
11532;DHT22;5822;51.000;5.874;2023-04-01T22:04:56;11.50;99.90
11532;DHT22;5822;51.000;5.874;2023-04-01T22:08:02;11.50;99.90
11532;DHT22;5822;51.000;5.874;2023-04-01T22:10:39;11.50;99.90
11532;DHT22;5822;51.000;5.874;2023-04-01T22:16:27;11.30;99.90
11532;DHT22;5822;51.000;5.874;2023-04-01T22:19:04;11.30;99.90
11532;DHT22;5822;51.000;5.874;2023-04-01T22:30:39;11.40;99.90
11532;DHT22;5822;51.000;5.874;2023-04-01T22:36:29;11.30;99.90
11532;DHT22;5822;51.000;5.874;2023-04-01T22:43:57;11.50;99.90
11532;DHT22;5822;51.000;5.874;2023-04-01T22:54:43;11.40;99.90
11532;DHT22;5822;51.000;5.874;2023-04-01T22:57:37;11.40;99.90
11532;DHT22;5822;51.000;5.874;2023-04-01T23:03:34;11.30;99.90
11532;DHT22;5822;51.000;5.874;2023-04-01T23:06:03;11.20;99.90
11532;DHT22;5822;51.000;5.874;2023-04-01T23:14:43;11.10;99.90
11532;DHT22;5822;51.000;5.874;2023-04-01T23:22:26;10.90;99.90
11532;DHT22;5822;51.000;5.874;2023-04-01T23:25:13;10.90;99.90
11532;DHT22;5822;51.000;5.874;2023-04-01T23:27:54;10.90;99.90
11532;DHT22;5822;51.000;5.874;2023-04-01T23:35:54;10.80;99.90
11532;DHT22;5822;51.000;5.874;2023-04-01T23:38:25;10.80;99.90
11532;DHT22;5822;51.000;5.874;2023-04-01T23:40:53;10.80;99.90
11532;DHT22;5822;51.000;5.874;2023-04-01T23:43:25;10.80;99.90
11532;DHT22;5822;51.000;5.874;2023-04-01T23:45:54;10.80;99.90
11532;DHT22;5822;51.000;5.874;2023-04-01T23:48:26;10.80;99.90
11532;DHT22;5822;51.000;5.874;2023-04-01T23:50:53;10.80;99.90
11532;DHT22;5822;51.000;5.874;2023-04-01T23:53:24;10.80;99.90
11532;DHT22;5822;51.000;5.874;2023-04-01T23:55:51;10.80;99.90
11532;DHT22;5822;51.000;5.874;2023-04-01T23:58:25;10.70;99.90
